createdAt,value
2018-12-30T00:03:16.690Z,60.87
2018-12-30T00:08:24.287Z,52.67
2018-12-30T00:13:33.927Z,54.30
2018-12-30T00:18:43.577Z,51.27
2018-12-30T00:23:50.522Z,53.60
2018-12-30T00:28:54.134Z,51.30
2018-12-30T00:33:57.739Z,50.40
2018-12-30T00:39:01.434Z,51.30
2018-12-30T00:44:05.473Z,53.80
2018-12-30T00:49:09.083Z,53.50
2018-12-30T00:54:18.732Z,50.50
2018-12-30T00:59:22.438Z,50.17
2018-12-30T01:04:26.071Z,51.97
2018-12-30T01:09:29.956Z,53.00
2018-12-30T01:14:35.274Z,46.60
2018-12-30T01:19:38.908Z,47.50
2018-12-30T01:24:45.193Z,47.43
2018-12-30T01:29:54.806Z,49.30
2018-12-30T01:35:09.185Z,53.97
2018-12-30T01:40:15.512Z,49.67
2018-12-30T01:45:21.864Z,52.80
2018-12-30T01:50:28.135Z,52.37
2018-12-30T01:55:33.379Z,57.60
2018-12-30T02:00:39.719Z,52.43
2018-12-30T02:05:43.325Z,62.87
2018-12-30T02:10:50.063Z,51.00
2018-12-30T02:15:53.806Z,50.50
2018-12-30T02:20:59.082Z,51.97
2018-12-30T02:26:08.261Z,52.47
2018-12-30T02:31:14.541Z,49.33
2018-12-30T02:36:19.693Z,48.87
2018-12-30T02:41:23.324Z,55.93
2018-12-30T02:46:32.663Z,52.97
2018-12-30T02:51:36.266Z,45.50
2018-12-30T02:56:40.355Z,48.57
2018-12-30T03:01:54.254Z,56.00
2018-12-30T03:06:58.525Z,55.70
2018-12-30T03:12:04.946Z,47.73
2018-12-30T03:17:11.583Z,50.50
2018-12-30T03:22:19.581Z,53.10
2018-12-30T03:27:23.195Z,50.70
2018-12-30T03:32:35.245Z,48.80
2018-12-30T03:37:38.860Z,50.27
2018-12-30T03:42:51.419Z,52.97
2018-12-30T03:47:56.751Z,49.33
2018-12-30T03:53:06.469Z,49.70
2018-12-30T03:58:10.080Z,45.23
2018-12-30T04:03:16.655Z,46.53
2018-12-30T04:08:20.427Z,49.93
2018-12-30T04:13:27.010Z,45.73
2018-12-30T04:18:36.177Z,48.53
2018-12-30T04:23:40.635Z,48.40
2018-12-30T04:28:44.279Z,45.50
2018-12-30T04:33:47.879Z,48.40
2018-12-30T04:38:51.507Z,54.90
2018-12-30T04:44:03.908Z,47.47
2018-12-30T04:49:07.528Z,45.20
2018-12-30T04:54:13.903Z,42.50
2018-12-30T04:59:17.527Z,42.63
2018-12-30T05:04:21.922Z,46.53
2018-12-30T05:09:27.167Z,47.50
2018-12-30T05:14:30.769Z,40.97
2018-12-30T05:19:34.381Z,48.07
2018-12-30T05:24:38.250Z,40.40
2018-12-30T05:29:41.859Z,44.83
2018-12-30T05:34:50.978Z,40.50
2018-12-30T05:39:56.234Z,37.30
2018-12-30T05:44:59.867Z,35.20
2018-12-30T05:50:04.345Z,41.13
2018-12-30T05:55:16.460Z,43.63
2018-12-30T06:00:20.094Z,35.37
2018-12-30T06:05:26.406Z,36.40
2018-12-30T06:10:34.687Z,30.27
2018-12-30T06:15:38.286Z,36.83
2018-12-30T06:20:43.532Z,33.40
2018-12-30T06:25:47.155Z,34.30
2018-12-30T06:30:52.401Z,33.53
2018-12-30T06:35:56.406Z,32.73
2018-12-30T06:41:06.019Z,30.63
2018-12-30T06:46:13.080Z,35.13
2018-12-30T06:51:22.438Z,32.17
2018-12-30T06:56:26.098Z,30.50
2018-12-30T07:01:35.760Z,32.80
2018-12-30T07:06:39.402Z,38.77
2018-12-30T07:11:43.007Z,33.40
2018-12-30T07:16:46.640Z,31.53
2018-12-30T07:21:50.276Z,29.93
2018-12-30T07:26:55.526Z,31.60
2018-12-30T07:32:01.059Z,30.70
2018-12-30T07:37:04.691Z,31.07
2018-12-30T07:42:08.308Z,31.73
2018-12-30T07:47:11.992Z,22.70
2018-12-30T07:52:15.618Z,31.37
2018-12-30T07:57:20.425Z,24.00
2018-12-30T08:02:25.293Z,27.37
2018-12-30T08:07:28.863Z,24.67
2018-12-30T08:12:32.482Z,30.43
2018-12-30T08:17:36.103Z,23.37
2018-12-30T08:22:39.726Z,23.57
2018-12-30T08:27:43.339Z,23.67
2018-12-30T08:32:47.014Z,28.80
2018-12-30T08:37:50.635Z,23.17
2018-12-30T08:42:54.234Z,20.43
2018-12-30T08:47:58.406Z,19.23
2018-12-30T08:53:03.217Z,24.57
2018-12-30T08:58:07.086Z,24.37
2018-12-30T09:03:13.620Z,21.37
2018-12-30T09:08:23.313Z,22.03
2018-12-30T09:13:26.710Z,19.53
2018-12-30T09:18:30.599Z,29.53
2018-12-30T09:23:37.573Z,21.03
2018-12-30T09:28:39.730Z,13.87
2018-12-30T09:33:43.378Z,19.13
2018-12-30T09:38:46.977Z,20.57
2018-12-30T09:43:50.592Z,14.30
2018-12-30T09:48:54.194Z,15.50
2018-12-30T09:53:57.803Z,16.47
2018-12-30T09:59:01.430Z,14.90
2018-12-30T10:04:05.117Z,17.13
2018-12-30T10:09:08.718Z,17.07
2018-12-30T10:14:15.779Z,18.13
2018-12-30T10:19:19.419Z,14.07
2018-12-30T10:24:23.031Z,15.50
2018-12-30T10:29:26.629Z,16.47
2018-12-30T10:34:32.113Z,16.20
2018-12-30T10:39:35.779Z,17.40
2018-12-30T10:44:39.999Z,18.67
2018-12-30T10:49:43.652Z,15.97
2018-12-30T10:54:47.297Z,16.00
2018-12-30T10:59:51.049Z,17.10
2018-12-30T11:04:54.665Z,16.10
2018-12-30T11:09:58.553Z,18.70
2018-12-30T11:15:03.993Z,17.97
2018-12-30T11:20:07.696Z,18.00
2018-12-30T11:25:11.294Z,17.67
2018-12-30T11:30:15.078Z,14.60
2018-12-30T11:35:18.745Z,14.70
2018-12-30T11:40:22.495Z,14.03
2018-12-30T11:45:27.982Z,24.20
2018-12-30T11:50:31.664Z,14.47
2018-12-30T11:55:35.294Z,15.30
2018-12-30T12:00:40.830Z,15.50
2018-12-30T12:05:44.430Z,14.10
2018-12-30T12:10:48.811Z,17.30
2018-12-30T12:15:52.454Z,15.90
2018-12-30T12:21:19.666Z,19.23
2018-12-30T12:26:23.321Z,18.60
2018-12-30T12:31:27.352Z,17.30
2018-12-30T12:36:31.967Z,14.87
2018-12-30T12:41:35.805Z,16.53
2018-12-30T12:46:39.411Z,18.77
2018-12-30T12:51:43.079Z,22.73
2018-12-30T12:56:46.770Z,27.03
2018-12-30T13:01:52.279Z,27.30
2018-12-30T13:06:55.836Z,30.80
2018-12-30T13:12:02.407Z,33.47
2018-12-30T13:17:06.007Z,30.23
2018-12-30T13:22:09.622Z,29.10
2018-12-30T13:27:13.238Z,31.70
2018-12-30T13:32:16.887Z,30.43
2018-12-30T13:37:20.538Z,34.90
2018-12-30T13:42:24.154Z,31.97
2018-12-30T13:47:27.776Z,29.80
2018-12-30T13:52:31.406Z,28.73
2018-12-30T13:57:35.056Z,30.73
2018-12-30T14:02:38.668Z,34.50
2018-12-30T14:07:43.149Z,30.50
2018-12-30T14:12:49.797Z,27.73
2018-12-30T14:17:53.523Z,27.00
2018-12-30T14:22:57.142Z,29.70
2018-12-30T14:28:00.810Z,26.00
2018-12-30T14:33:04.461Z,25.00
2018-12-30T14:38:08.095Z,26.53
2018-12-30T14:43:11.913Z,26.27
2018-12-30T14:48:15.530Z,31.20
2018-12-30T14:53:36.660Z,31.57
2018-12-30T14:58:40.306Z,26.33
2018-12-30T15:03:43.922Z,26.40
2018-12-30T15:08:47.555Z,27.37
2018-12-30T15:13:52.838Z,28.30
2018-12-30T15:18:58.259Z,25.10
2018-12-30T15:24:01.879Z,26.83
2018-12-30T15:29:05.492Z,32.07
2018-12-30T15:34:11.813Z,26.50
2018-12-30T15:39:15.507Z,30.40
2018-12-30T15:44:19.080Z,32.93
2018-12-30T15:49:24.335Z,26.30
2018-12-30T15:54:31.133Z,27.20
2018-12-30T15:59:37.831Z,21.00
2018-12-30T16:04:41.447Z,25.53
2018-12-30T16:09:45.071Z,28.77
2018-12-30T16:14:48.950Z,23.97
2018-12-30T16:19:52.590Z,24.40
2018-12-30T16:24:56.213Z,25.97
2018-12-30T16:30:00.634Z,43.07
2018-12-30T16:35:04.425Z,32.53
2018-12-30T16:40:09.804Z,29.13
2018-12-30T16:45:13.583Z,32.00
2018-12-30T16:50:22.942Z,28.00
2018-12-30T16:55:26.830Z,30.13
2018-12-30T17:00:33.727Z,29.73
2018-12-30T17:05:37.375Z,26.40
2018-12-30T17:10:44.105Z,26.43
2018-12-30T17:15:48.826Z,26.03
2018-12-30T17:20:52.488Z,30.33
2018-12-30T17:25:56.078Z,27.37
2018-12-30T17:31:02.463Z,23.87
2018-12-30T17:36:06.119Z,28.50
2018-12-30T17:41:09.775Z,26.87
2018-12-30T17:46:18.444Z,30.80
2018-12-30T17:51:24.773Z,29.53
2018-12-30T17:56:30.064Z,28.20
2018-12-30T18:01:33.713Z,29.43
2018-12-30T18:06:37.326Z,28.70
2018-12-30T18:11:46.878Z,35.97
2018-12-30T18:16:57.365Z,24.63
2018-12-30T18:22:01.550Z,28.03
2018-12-30T18:27:05.241Z,27.10
2018-12-30T18:32:11.887Z,25.60
2018-12-30T18:37:15.541Z,28.70
2018-12-30T18:42:19.197Z,30.30
2018-12-30T18:47:22.860Z,29.67
2018-12-30T18:52:30.808Z,26.10
2018-12-30T18:57:37.471Z,26.47
2018-12-30T19:02:43.227Z,36.20
2018-12-30T19:08:06.686Z,27.73
2018-12-30T19:13:10.847Z,28.23
2018-12-30T19:18:14.494Z,27.80
2018-12-30T19:23:18.150Z,28.97
2018-12-30T19:28:21.765Z,27.27
2018-12-30T19:33:25.386Z,26.03
2018-12-30T19:38:28.978Z,24.17
2018-12-30T19:43:35.291Z,27.77
2018-12-30T19:48:40.529Z,39.90
2018-12-30T19:53:47.108Z,32.40
2018-12-30T19:58:54.586Z,26.10
2018-12-30T20:04:01.416Z,28.13
2018-12-30T20:09:07.457Z,26.73
2018-12-30T20:14:11.074Z,27.50
2018-12-30T20:19:14.746Z,26.70
2018-12-30T20:24:21.294Z,23.80
2018-12-30T20:29:24.927Z,28.57
2018-12-30T20:34:39.268Z,28.63
2018-12-30T20:39:42.870Z,29.73
2018-12-30T20:44:46.570Z,26.33
2018-12-30T20:49:53.323Z,29.83
2018-12-30T20:54:59.681Z,26.97
2018-12-30T21:00:06.590Z,34.53
2018-12-30T21:05:10.261Z,30.00
2018-12-30T21:10:13.869Z,27.60
2018-12-30T21:15:17.483Z,33.03
2018-12-30T21:20:21.267Z,29.87
2018-12-30T21:25:25.042Z,34.27
2018-12-30T21:30:29.643Z,30.27
2018-12-30T21:35:33.215Z,27.33
2018-12-30T21:40:36.875Z,28.17
2018-12-30T21:45:40.511Z,27.13
2018-12-30T21:50:46.120Z,31.20
2018-12-30T21:55:49.383Z,35.73
2018-12-30T22:00:54.677Z,41.10
2018-12-30T22:05:58.320Z,37.30
2018-12-30T22:11:03.656Z,33.03
2018-12-30T22:16:09.094Z,32.90
2018-12-30T22:21:12.662Z,32.20
2018-12-30T22:26:16.319Z,30.23
2018-12-30T22:31:19.938Z,28.70
2018-12-30T22:36:23.568Z,33.30
2018-12-30T22:41:27.283Z,27.63
2018-12-30T22:46:31.026Z,32.10
2018-12-30T22:51:34.677Z,28.77
2018-12-30T22:56:38.295Z,33.50
2018-12-30T23:01:41.905Z,30.50
2018-12-30T23:06:50.246Z,29.23
2018-12-30T23:11:53.936Z,32.57
2018-12-30T23:17:00.227Z,33.23
2018-12-30T23:22:03.917Z,28.83
2018-12-30T23:27:13.519Z,27.77
2018-12-30T23:32:17.974Z,34.87
2018-12-30T23:37:23.331Z,27.77
2018-12-30T23:42:27.252Z,28.80
2018-12-30T23:47:34.207Z,28.93
2018-12-30T23:52:39.466Z,30.23
2018-12-30T23:57:46.872Z,32.47
